createdAt,value
2023-01-01T00:03:59.996Z,13.96
2023-01-01T00:08:05.227Z,13.95
2023-01-01T00:12:07.650Z,13.93
2023-01-01T00:16:14.216Z,13.94
2023-01-01T00:20:16.642Z,13.93
2023-01-01T00:24:18.677Z,13.92
2023-01-01T00:28:20.684Z,13.94
2023-01-01T00:32:23.348Z,13.94
2023-01-01T00:36:27.222Z,13.92
2023-01-01T00:40:29.332Z,13.87
2023-01-01T00:44:31.392Z,13.87
2023-01-01T00:48:33.745Z,13.91
2023-01-01T00:52:35.739Z,13.91
2023-01-01T00:56:37.748Z,13.94
2023-01-01T01:00:39.772Z,13.97
2023-01-01T01:04:41.832Z,13.98
2023-01-01T01:08:46.211Z,13.94
2023-01-01T01:12:48.280Z,13.90
2023-01-01T01:16:50.380Z,13.87
2023-01-01T01:20:53.764Z,13.83
2023-01-01T01:24:56.546Z,13.95
2023-01-01T01:28:59.081Z,14.02
2023-01-01T01:33:01.072Z,13.88
2023-01-01T01:37:03.253Z,13.75
2023-01-01T01:41:06.028Z,13.67
2023-01-01T01:45:10.955Z,13.62
2023-01-01T01:49:18.859Z,13.58
2023-01-01T01:53:24.784Z,13.52
2023-01-01T01:57:27.391Z,13.47
2023-01-01T02:01:29.841Z,13.45
2023-01-01T02:05:34.388Z,13.41
2023-01-01T02:09:37.278Z,13.39
2023-01-01T02:13:39.528Z,13.38
2023-01-01T02:17:57.846Z,13.36
2023-01-01T02:22:10.397Z,13.32
2023-01-01T02:26:42.563Z,13.53
2023-01-01T02:30:47.358Z,13.43
2023-01-01T02:34:57.528Z,13.38
2023-01-01T02:39:04.105Z,13.29
2023-01-01T02:43:07.013Z,13.27
2023-01-01T02:47:11.919Z,13.25
2023-01-01T02:51:13.885Z,13.23
2023-01-01T02:55:43.730Z,13.27
2023-01-01T03:00:27.621Z,13.27
2023-01-01T03:04:46.230Z,13.29
2023-01-01T03:09:06.571Z,13.27
2023-01-01T03:13:33.598Z,13.26
2023-01-01T03:17:41.356Z,13.27
2023-01-01T03:21:46.978Z,13.29
2023-01-01T03:25:52.212Z,13.29
2023-01-01T03:29:57.656Z,13.41
2023-01-01T03:34:14.883Z,13.39
2023-01-01T03:38:26.479Z,13.29
2023-01-01T03:42:46.669Z,13.26
2023-01-01T03:46:48.996Z,13.23
2023-01-01T03:51:10.032Z,13.17
2023-01-01T03:55:27.304Z,13.14
2023-01-01T04:00:09.900Z,13.12
2023-01-01T04:04:16.456Z,13.10
2023-01-01T04:08:19.155Z,13.07
2023-01-01T04:12:21.616Z,13.04
2023-01-01T04:16:23.826Z,13.04
2023-01-01T04:20:26.168Z,13.05
2023-01-01T04:24:28.922Z,13.05
2023-01-01T04:28:30.960Z,13.09
2023-01-01T04:32:33.292Z,13.09
2023-01-01T04:36:35.363Z,13.06
2023-01-01T04:40:37.368Z,13.05
2023-01-01T04:44:40.595Z,13.04
2023-01-01T04:48:42.611Z,13.03
2023-01-01T04:52:44.652Z,13.00
2023-01-01T04:56:46.760Z,13.18
2023-01-01T05:00:50.559Z,13.13
2023-01-01T05:04:52.627Z,13.06
2023-01-01T05:08:56.110Z,13.06
2023-01-01T05:12:58.143Z,13.05
2023-01-01T05:17:00.148Z,13.07
2023-01-01T05:21:08.821Z,13.14
2023-01-01T05:25:10.820Z,13.13
2023-01-01T05:29:16.680Z,13.17
2023-01-01T05:33:20.407Z,13.21
2023-01-01T05:37:22.540Z,13.18
2023-01-01T05:41:24.695Z,13.15
2023-01-01T05:45:26.716Z,13.12
2023-01-01T05:49:28.961Z,13.14
2023-01-01T05:53:31.259Z,13.13
2023-01-01T05:57:33.297Z,13.07
2023-01-01T06:01:40.166Z,12.98
2023-01-01T06:05:47.399Z,12.83
2023-01-01T06:09:49.404Z,12.85
2023-01-01T06:13:53.139Z,12.85
2023-01-01T06:17:55.156Z,12.93
2023-01-01T06:21:57.173Z,12.95
2023-01-01T06:26:08.418Z,13.02
2023-01-01T06:30:10.812Z,13.28
2023-01-01T06:34:12.820Z,13.27
2023-01-01T06:38:14.848Z,13.18
2023-01-01T06:42:16.891Z,13.14
2023-01-01T06:46:26.348Z,13.11
2023-01-01T06:50:28.506Z,13.09
2023-01-01T06:54:30.762Z,13.12
2023-01-01T06:58:33.204Z,13.16
2023-01-01T07:02:35.530Z,13.15
2023-01-01T07:06:38.723Z,13.15
2023-01-01T07:10:40.736Z,13.20
2023-01-01T07:14:42.766Z,13.25
2023-01-01T07:18:45.938Z,13.27
2023-01-01T07:22:47.983Z,13.30
2023-01-01T07:26:50.062Z,13.28
2023-01-01T07:30:56.027Z,13.29
2023-01-01T07:34:58.102Z,13.29
2023-01-01T07:39:00.201Z,13.29
2023-01-01T07:43:02.746Z,13.29
2023-01-01T07:47:14.042Z,13.28
2023-01-01T07:51:16.038Z,13.25
2023-01-01T07:55:19.844Z,13.25
2023-01-01T07:59:21.889Z,13.24
2023-01-01T08:03:24.999Z,13.28
2023-01-01T08:07:27.123Z,13.33
2023-01-01T08:11:29.114Z,13.42
2023-01-01T08:15:31.858Z,13.49
2023-01-01T08:19:33.928Z,13.57
2023-01-01T08:23:35.918Z,13.64
2023-01-01T08:27:38.289Z,13.69
2023-01-01T08:31:41.190Z,13.73
2023-01-01T08:35:45.635Z,13.79
2023-01-01T08:39:51.998Z,13.84
2023-01-01T08:43:54.107Z,13.90
2023-01-01T08:47:56.171Z,13.98
2023-01-01T08:51:58.235Z,14.01
2023-01-01T08:56:09.035Z,14.03
2023-01-01T09:00:13.526Z,14.04
2023-01-01T09:04:17.147Z,14.07
2023-01-01T09:08:19.792Z,14.07
2023-01-01T09:12:21.824Z,14.11
2023-01-01T09:16:25.125Z,14.10
2023-01-01T09:20:27.373Z,14.30
2023-01-01T09:24:29.384Z,14.66
2023-01-01T09:28:31.567Z,14.75
2023-01-01T09:32:33.604Z,14.60
2023-01-01T09:36:36.007Z,14.48
2023-01-01T09:41:00.271Z,14.38
2023-01-01T09:45:19.878Z,14.32
2023-01-01T09:49:35.304Z,14.31
2023-01-01T09:54:13.245Z,14.37
2023-01-01T09:58:15.517Z,14.38
2023-01-01T10:02:51.495Z,14.39
2023-01-01T10:07:21.909Z,14.41
2023-01-01T10:11:38.021Z,14.41
2023-01-01T10:15:49.568Z,14.39
2023-01-01T10:19:58.744Z,14.37
2023-01-01T10:24:27.765Z,14.39
2023-01-01T10:28:49.431Z,14.42
2023-01-01T10:32:55.724Z,14.44
2023-01-01T10:37:00.341Z,14.50
2023-01-01T10:41:17.135Z,14.53
2023-01-01T10:45:34.241Z,14.54
2023-01-01T10:49:54.174Z,14.57
2023-01-01T10:53:56.421Z,14.59
2023-01-01T10:57:58.440Z,14.60
2023-01-01T11:02:15.794Z,14.66
2023-01-01T11:06:17.844Z,14.71
2023-01-01T11:10:25.726Z,14.73
2023-01-01T11:14:36.773Z,14.75
2023-01-01T11:18:38.812Z,14.77
2023-01-01T11:22:46.767Z,14.78
2023-01-01T11:26:54.521Z,14.77
2023-01-01T11:31:02.302Z,14.75
2023-01-01T11:35:07.844Z,14.69
2023-01-01T11:39:12.943Z,14.65
2023-01-01T11:43:24.386Z,14.67
2023-01-01T11:47:31.818Z,14.72
2023-01-01T11:51:33.963Z,14.75
2023-01-01T11:55:44.977Z,14.80
2023-01-01T11:59:53.247Z,14.84
2023-01-01T12:04:40.506Z,14.91
2023-01-01T12:08:51.365Z,14.93
2023-01-01T12:13:00.887Z,14.95
2023-01-01T12:17:10.887Z,14.98
2023-01-01T12:21:25.092Z,15.01
2023-01-01T12:25:38.598Z,15.02
2023-01-01T12:30:11.938Z,15.02
2023-01-01T12:34:27.028Z,15.01
2023-01-01T12:38:54.054Z,15.03
2023-01-01T12:43:07.605Z,15.06
2023-01-01T12:47:50.196Z,15.15
2023-01-01T12:52:28.475Z,15.24
2023-01-01T12:57:00.075Z,15.28
2023-01-01T13:01:22.572Z,15.32
2023-01-01T13:05:35.379Z,15.35
2023-01-01T13:09:45.519Z,15.36
2023-01-01T13:13:47.568Z,15.37
2023-01-01T13:17:53.460Z,15.42
2023-01-01T13:21:55.525Z,15.43
2023-01-01T13:26:22.838Z,15.44
2023-01-01T13:30:46.023Z,15.41
2023-01-01T13:35:02.615Z,15.33
2023-01-01T13:39:04.743Z,15.28
2023-01-01T13:43:18.529Z,15.20
2023-01-01T13:47:50.768Z,15.11
2023-01-01T13:52:16.751Z,15.09
2023-01-01T13:56:33.818Z,15.02
2023-01-01T14:01:13.264Z,14.96
2023-01-01T14:05:22.888Z,14.93
2023-01-01T14:09:25.233Z,14.90
2023-01-01T14:13:39.096Z,14.88
2023-01-01T14:17:44.336Z,14.80
2023-01-01T14:21:46.676Z,14.78
2023-01-01T14:25:49.568Z,14.72
2023-01-01T14:29:51.958Z,14.65
2023-01-01T14:33:54.272Z,14.60
2023-01-01T14:37:56.845Z,14.58
2023-01-01T14:42:09.011Z,14.53
2023-01-01T14:46:16.771Z,14.46
2023-01-01T14:50:31.741Z,14.46
2023-01-01T14:54:37.963Z,14.42
2023-01-01T14:58:40.678Z,14.39
2023-01-01T15:02:42.820Z,14.34
2023-01-01T15:06:44.905Z,14.25
2023-01-01T15:10:47.450Z,14.18
2023-01-01T15:14:52.340Z,14.12
2023-01-01T15:18:57.211Z,14.08
2023-01-01T15:23:03.533Z,14.07
2023-01-01T15:27:25.473Z,14.05
2023-01-01T15:31:43.710Z,14.04
2023-01-01T15:35:50.638Z,14.04
2023-01-01T15:39:56.497Z,14.03
2023-01-01T15:44:29.299Z,13.98
2023-01-01T15:48:34.917Z,13.94
2023-01-01T15:52:38.099Z,13.90
2023-01-01T15:56:40.779Z,13.90
2023-01-01T16:00:42.815Z,13.88
2023-01-01T16:04:47.113Z,13.86
2023-01-01T16:08:50.616Z,13.86
2023-01-01T16:12:52.780Z,13.79
2023-01-01T16:17:00.501Z,13.79
2023-01-01T16:21:04.302Z,13.81
2023-01-01T16:25:13.557Z,13.79
2023-01-01T16:29:16.090Z,13.75
2023-01-01T16:33:20.387Z,13.75
2023-01-01T16:37:23.305Z,13.75
2023-01-01T16:41:28.642Z,13.73
2023-01-01T16:45:30.717Z,13.74
2023-01-01T16:49:32.819Z,13.73
2023-01-01T16:53:36.291Z,13.77
2023-01-01T16:57:39.903Z,13.80
2023-01-01T17:01:42.124Z,13.84
2023-01-01T17:05:44.855Z,13.87
2023-01-01T17:09:47.032Z,13.91
2023-01-01T17:13:49.137Z,13.92
2023-01-01T17:17:51.116Z,13.92
2023-01-01T17:21:53.169Z,13.96
2023-01-01T17:25:55.208Z,14.01
2023-01-01T17:29:57.220Z,14.02
2023-01-01T17:33:59.501Z,14.03
2023-01-01T17:38:01.524Z,13.99
2023-01-01T17:42:03.675Z,13.97
2023-01-01T17:46:12.907Z,13.94
2023-01-01T17:50:15.783Z,13.96
2023-01-01T17:54:17.800Z,13.96
2023-01-01T17:58:19.816Z,13.85
2023-01-01T18:02:22.001Z,13.80
2023-01-01T18:06:24.955Z,13.78
2023-01-01T18:10:26.943Z,13.71
2023-01-01T18:14:28.956Z,13.63
2023-01-01T18:18:31.170Z,13.58
2023-01-01T18:22:36.780Z,13.50
2023-01-01T18:26:43.699Z,13.43
2023-01-01T18:30:45.732Z,13.32
2023-01-01T18:34:48.503Z,13.27
2023-01-01T18:39:17.531Z,13.27
2023-01-01T18:43:24.927Z,13.25
2023-01-01T18:47:27.310Z,13.18
2023-01-01T18:51:29.665Z,13.19
2023-01-01T18:55:32.235Z,13.20
2023-01-01T18:59:37.795Z,13.21
2023-01-01T19:03:41.556Z,13.03
2023-01-01T19:07:49.896Z,12.98
2023-01-01T19:11:54.120Z,12.87
2023-01-01T19:16:11.573Z,12.87
2023-01-01T19:20:17.283Z,12.81
2023-01-01T19:24:30.209Z,12.71
2023-01-01T19:28:35.112Z,12.74
2023-01-01T19:32:37.571Z,12.81
2023-01-01T19:36:40.223Z,12.92
2023-01-01T19:40:42.328Z,12.98
2023-01-01T19:44:44.369Z,13.04
2023-01-01T19:48:46.418Z,13.05
2023-01-01T19:52:48.485Z,13.05
2023-01-01T19:56:50.883Z,13.01
2023-01-01T20:00:53.233Z,13.02
2023-01-01T20:04:55.345Z,13.03
2023-01-01T20:08:57.452Z,13.09
2023-01-01T20:12:59.819Z,13.15
2023-01-01T20:17:02.328Z,13.18
2023-01-01T20:21:26.333Z,13.24
2023-01-01T20:25:28.901Z,13.29
2023-01-01T20:29:30.923Z,13.34
2023-01-01T20:33:32.945Z,13.43
2023-01-01T20:37:37.862Z,13.49
2023-01-01T20:41:39.962Z,13.52
2023-01-01T20:45:41.987Z,13.53
2023-01-01T20:49:44.114Z,13.57
2023-01-01T20:53:46.177Z,13.66
2023-01-01T20:57:48.210Z,13.70
2023-01-01T21:01:50.370Z,13.69
2023-01-01T21:05:52.689Z,13.66
2023-01-01T21:09:54.683Z,13.65
2023-01-01T21:13:56.761Z,13.81
2023-01-01T21:17:59.539Z,13.95
2023-01-01T21:22:01.560Z,14.06
2023-01-01T21:26:13.877Z,14.27
2023-01-01T21:30:15.963Z,14.46
2023-01-01T21:34:48.928Z,14.56
2023-01-01T21:38:52.312Z,14.63
2023-01-01T21:42:57.758Z,14.68
2023-01-01T21:47:02.115Z,14.66
2023-01-01T21:51:18.504Z,14.58
2023-01-01T21:55:46.396Z,14.52
2023-01-01T21:59:50.064Z,14.46
2023-01-01T22:04:02.407Z,14.41
2023-01-01T22:08:25.110Z,14.31
2023-01-01T22:12:29.477Z,14.26
2023-01-01T22:16:31.558Z,14.20
2023-01-01T22:20:37.009Z,14.11
2023-01-01T22:24:39.322Z,14.08
2023-01-01T22:28:44.230Z,14.15
2023-01-01T22:32:50.632Z,14.15
2023-01-01T22:36:53.619Z,14.16
2023-01-01T22:40:56.587Z,14.17
2023-01-01T22:44:59.315Z,14.18
2023-01-01T22:49:11.125Z,14.23
2023-01-01T22:53:13.154Z,14.16
2023-01-01T22:57:15.154Z,14.10
2023-01-01T23:01:17.196Z,14.08
2023-01-01T23:05:19.200Z,14.06
2023-01-01T23:09:21.453Z,14.10
2023-01-01T23:13:42.085Z,14.13
2023-01-01T23:17:44.070Z,14.15
2023-01-01T23:21:46.719Z,14.16
2023-01-01T23:25:49.187Z,14.16
2023-01-01T23:29:52.820Z,14.20
2023-01-01T23:33:56.217Z,14.19
2023-01-01T23:37:59.025Z,14.15
2023-01-01T23:42:01.026Z,14.15
2023-01-01T23:46:03.211Z,14.12
2023-01-01T23:50:05.903Z,14.08
2023-01-01T23:54:07.998Z,14.03
2023-01-01T23:58:10.050Z,14.01
